createdAt,value
2022-11-03T00:01:44.581Z,8.70
2022-11-03T00:04:15.984Z,8.70
2022-11-03T00:06:43.908Z,8.60
2022-11-03T00:09:12.915Z,8.60
2022-11-03T00:11:41.586Z,8.60
2022-11-03T00:14:12.201Z,8.70
2022-11-03T00:16:40.060Z,8.60
2022-11-03T00:19:08.140Z,8.70
2022-11-03T00:24:05.181Z,8.80
2022-11-03T00:26:33.768Z,8.80
2022-11-03T00:29:05.806Z,8.90
2022-11-03T00:31:34.500Z,8.90
2022-11-03T00:36:31.489Z,9.00
2022-11-03T00:38:58.701Z,9.00
2022-11-03T00:41:26.436Z,9.10
2022-11-03T00:43:53.695Z,9.10
2022-11-03T00:46:21.932Z,9.10
2022-11-03T00:48:49.223Z,9.20
2022-11-03T00:51:27.384Z,9.20
2022-11-03T00:53:56.142Z,9.20
2022-11-03T00:56:25.591Z,9.20
2022-11-03T00:58:53.296Z,9.20
2022-11-03T01:01:31.634Z,9.30
2022-11-03T01:04:17.888Z,9.30
2022-11-03T01:06:52.545Z,9.30
2022-11-03T01:09:40.966Z,9.30
2022-11-03T01:12:16.658Z,9.40
2022-11-03T01:14:52.115Z,8.50
2022-11-03T01:22:14.067Z,9.40
2022-11-03T01:24:42.175Z,9.40
2022-11-03T01:27:14.631Z,9.40
2022-11-03T01:29:41.558Z,9.40
2022-11-03T01:32:08.802Z,9.40
2022-11-03T01:34:36.136Z,9.40
2022-11-03T01:39:29.959Z,9.40
2022-11-03T01:41:57.023Z,9.40
2022-11-03T01:44:39.517Z,9.40
2022-11-03T01:47:13.222Z,9.40
2022-11-03T01:50:05.956Z,9.40
2022-11-03T01:52:41.056Z,9.40
2022-11-03T01:55:21.487Z,9.40
2022-11-03T01:58:03.877Z,9.40
2022-11-03T02:05:26.122Z,9.40
2022-11-03T02:08:19.453Z,9.40
2022-11-03T02:10:50.311Z,9.30
2022-11-03T02:13:21.000Z,9.30
2022-11-03T02:15:49.784Z,9.30
2022-11-03T02:18:18.835Z,9.30
2022-11-03T02:20:49.367Z,9.30
2022-11-03T02:23:38.482Z,9.40
2022-11-03T02:26:08.254Z,9.40
2022-11-03T02:28:34.863Z,9.40
2022-11-03T02:31:19.880Z,9.40
2022-11-03T02:34:02.576Z,9.40
2022-11-03T02:36:53.646Z,9.40
2022-11-03T02:39:28.800Z,9.40
2022-11-03T02:41:58.833Z,9.50
2022-11-03T02:44:27.003Z,9.50
2022-11-03T02:47:00.578Z,9.40
2022-11-03T02:49:27.776Z,9.50
2022-11-03T02:52:02.005Z,9.50
2022-11-03T02:54:35.779Z,9.40
2022-11-03T02:57:08.081Z,9.40
2022-11-03T02:59:42.937Z,9.30
2022-11-03T03:02:15.663Z,9.50
2022-11-03T03:04:49.417Z,9.40
2022-11-03T03:07:21.018Z,9.40
2022-11-03T03:10:03.409Z,9.40
2022-11-03T03:12:33.483Z,9.40
2022-11-03T03:15:02.131Z,9.40
2022-11-03T03:17:32.035Z,9.40
2022-11-03T03:20:07.382Z,9.50
2022-11-03T03:22:55.033Z,9.50
2022-11-03T03:25:34.406Z,9.50
2022-11-03T03:28:21.570Z,9.50
2022-11-03T03:30:48.954Z,9.50
2022-11-03T03:33:17.648Z,9.50
2022-11-03T03:35:48.919Z,9.50
2022-11-03T03:38:21.762Z,9.50
2022-11-03T03:40:52.141Z,9.50
2022-11-03T03:43:21.731Z,9.50
2022-11-03T03:45:50.724Z,9.50
2022-11-03T03:48:17.719Z,9.50
2022-11-03T03:50:46.552Z,9.50
2022-11-03T03:55:46.325Z,9.50
2022-11-03T03:58:14.626Z,9.50
2022-11-03T04:00:42.073Z,9.60
2022-11-03T04:03:15.470Z,9.50
2022-11-03T04:08:09.824Z,9.50
2022-11-03T04:18:39.924Z,9.50
2022-11-03T04:21:27.445Z,9.50
2022-11-03T04:26:22.944Z,9.50
2022-11-03T04:28:52.283Z,9.50
2022-11-03T04:31:20.089Z,9.50
2022-11-03T04:33:48.097Z,9.50
2022-11-03T04:36:22.200Z,9.50
2022-11-03T04:38:50.004Z,9.50
2022-11-03T04:41:22.774Z,9.50
2022-11-03T04:43:51.302Z,9.60
2022-11-03T04:46:26.164Z,9.60
2022-11-03T04:48:54.047Z,9.60
2022-11-03T04:51:24.210Z,9.60
2022-11-03T04:53:55.098Z,9.50
2022-11-03T04:56:24.157Z,9.60
2022-11-03T05:01:24.320Z,9.60
2022-11-03T05:03:56.105Z,9.60
2022-11-03T05:06:26.668Z,9.60
2022-11-03T05:09:00.363Z,9.70
2022-11-03T05:11:34.453Z,9.70
2022-11-03T05:14:04.616Z,9.60
2022-11-03T05:16:31.703Z,9.70
2022-11-03T05:21:27.489Z,9.70
2022-11-03T05:23:57.974Z,9.70
2022-11-03T05:26:32.670Z,9.70
2022-11-03T05:29:04.530Z,9.70
2022-11-03T05:31:34.404Z,9.80
2022-11-03T05:34:03.916Z,9.70
2022-11-03T05:36:31.707Z,9.80
2022-11-03T05:39:30.845Z,9.80
2022-11-03T05:42:02.003Z,9.80
2022-11-03T05:44:36.786Z,9.80
2022-11-03T05:47:19.674Z,9.80
2022-11-03T05:52:21.533Z,9.80
2022-11-03T05:54:48.710Z,9.80
2022-11-03T05:59:45.228Z,9.80
2022-11-03T06:02:37.875Z,9.90
2022-11-03T06:05:31.143Z,9.80
2022-11-03T06:08:01.565Z,9.80
2022-11-03T06:10:31.740Z,9.80
2022-11-03T06:13:21.906Z,9.70
2022-11-03T06:15:53.184Z,9.70
2022-11-03T06:18:22.704Z,9.60
2022-11-03T06:20:52.646Z,9.60
2022-11-03T06:23:20.740Z,9.60
2022-11-03T06:25:48.776Z,9.70
2022-11-03T06:28:20.752Z,9.60
2022-11-03T06:30:48.391Z,9.60
2022-11-03T06:33:25.891Z,9.60
2022-11-03T06:35:55.372Z,9.60
2022-11-03T06:38:25.612Z,9.60
2022-11-03T06:40:53.363Z,9.60
2022-11-03T06:43:47.922Z,9.60
2022-11-03T06:46:25.926Z,9.50
2022-11-03T06:48:55.256Z,9.50
2022-11-03T06:51:27.920Z,9.50
2022-11-03T06:53:58.352Z,9.50
2022-11-03T06:56:28.174Z,9.50
2022-11-03T06:58:56.503Z,9.50
2022-11-03T07:01:26.309Z,9.50
2022-11-03T07:03:58.779Z,9.50
2022-11-03T07:06:36.129Z,9.30
2022-11-03T07:09:05.640Z,9.50
2022-11-03T07:11:36.010Z,9.50
2022-11-03T07:14:18.289Z,9.50
2022-11-03T07:16:53.595Z,9.50
2022-11-03T07:19:27.563Z,9.50
2022-11-03T07:22:00.157Z,9.60
2022-11-03T07:24:55.835Z,9.60
2022-11-03T07:27:29.096Z,9.60
2022-11-03T07:30:16.666Z,9.70
2022-11-03T07:32:43.334Z,9.70
2022-11-03T07:35:26.003Z,9.80
2022-11-03T07:37:53.481Z,9.80
2022-11-03T07:40:25.814Z,9.90
2022-11-03T07:42:56.513Z,9.90
2022-11-03T07:45:43.326Z,10.00
2022-11-03T07:48:43.302Z,10.00
2022-11-03T07:51:21.821Z,10.00
2022-11-03T07:53:50.684Z,10.00
2022-11-03T07:56:26.259Z,10.10
2022-11-03T07:59:11.612Z,10.10
2022-11-03T08:01:42.377Z,10.20
2022-11-03T08:04:17.521Z,10.30
2022-11-03T08:06:44.202Z,10.40
2022-11-03T08:11:37.800Z,10.50
2022-11-03T08:18:58.438Z,10.70
2022-11-03T08:26:19.091Z,10.90
2022-11-03T08:28:45.708Z,11.00
2022-11-03T08:33:40.773Z,11.00
2022-11-03T08:38:35.512Z,11.30
2022-11-03T08:41:02.367Z,11.40
2022-11-03T08:48:27.267Z,11.50
2022-11-03T08:50:54.886Z,11.60
2022-11-03T08:53:22.765Z,11.70
2022-11-03T09:00:43.649Z,11.90
2022-11-03T09:10:51.207Z,12.00
2022-11-03T09:13:17.753Z,12.10
2022-11-03T09:18:11.424Z,12.20
2022-11-03T09:27:59.682Z,12.30
2022-11-03T09:32:53.342Z,12.50
2022-11-03T09:35:20.272Z,12.50
2022-11-03T09:40:16.123Z,12.60
2022-11-03T09:42:43.273Z,12.60
2022-11-03T09:45:10.620Z,12.70
2022-11-03T09:47:40.168Z,12.80
2022-11-03T09:50:12.177Z,12.90
2022-11-03T09:52:38.791Z,12.80
2022-11-03T09:55:15.028Z,12.90
2022-11-03T09:57:42.625Z,13.00
2022-11-03T10:00:20.882Z,13.00
2022-11-03T10:02:48.449Z,13.00
2022-11-03T10:05:25.471Z,13.10
2022-11-03T10:08:05.423Z,13.10
2022-11-03T10:10:32.460Z,13.10
2022-11-03T10:13:00.556Z,13.10
2022-11-03T10:15:27.957Z,13.20
2022-11-03T10:17:56.533Z,13.20
2022-11-03T10:20:23.695Z,13.20
2022-11-03T10:22:54.852Z,13.30
2022-11-03T10:25:36.514Z,13.30
2022-11-03T10:28:23.506Z,13.30
2022-11-03T10:31:19.913Z,13.30
2022-11-03T10:33:54.820Z,13.20
2022-11-03T10:36:30.169Z,13.40
2022-11-03T10:38:57.760Z,13.40
2022-11-03T10:41:26.616Z,13.40
2022-11-03T10:44:04.371Z,13.40
2022-11-03T10:49:20.137Z,13.50
2022-11-03T10:51:49.302Z,13.60
2022-11-03T10:54:17.661Z,13.60
2022-11-03T10:56:45.680Z,13.70
2022-11-03T10:59:18.908Z,13.70
2022-11-03T11:04:16.894Z,13.70
2022-11-03T11:09:13.733Z,13.70
2022-11-03T11:14:36.756Z,13.80
2022-11-03T11:17:04.574Z,13.90
2022-11-03T11:19:51.417Z,13.90
2022-11-03T11:22:23.283Z,13.90
2022-11-03T11:27:32.237Z,14.00
2022-11-03T11:30:05.028Z,14.00
2022-11-03T11:32:49.976Z,14.10
2022-11-03T11:35:18.464Z,14.10
2022-11-03T11:40:15.009Z,14.10
2022-11-03T11:43:04.698Z,14.10
2022-11-03T11:46:09.803Z,14.10
2022-11-03T11:51:07.440Z,14.10
2022-11-03T11:53:39.951Z,14.10
2022-11-03T11:56:10.482Z,14.00
2022-11-03T11:58:51.418Z,14.00
2022-11-03T12:01:27.738Z,14.00
2022-11-03T12:03:57.166Z,14.00
2022-11-03T12:06:40.431Z,13.90
2022-11-03T12:09:12.781Z,13.90
2022-11-03T12:11:55.368Z,14.00
2022-11-03T12:16:50.172Z,14.10
2022-11-03T12:19:37.461Z,14.10
2022-11-03T12:22:28.024Z,14.10
2022-11-03T12:25:02.848Z,14.10
2022-11-03T12:27:29.387Z,14.00
2022-11-03T12:30:02.385Z,13.90
2022-11-03T12:35:02.092Z,13.90
2022-11-03T12:37:28.716Z,13.90
2022-11-03T12:42:24.668Z,13.90
2022-11-03T12:49:45.501Z,13.90
2022-11-03T12:54:39.615Z,13.90
2022-11-03T13:12:07.895Z,14.00
2022-11-03T13:17:03.595Z,14.10
2022-11-03T13:21:57.323Z,14.20
2022-11-03T13:24:23.991Z,14.30
2022-11-03T13:34:11.646Z,14.10
2022-11-03T13:36:38.213Z,14.10
2022-11-03T13:39:04.792Z,14.10
2022-11-03T13:43:58.384Z,14.00
2022-11-03T13:49:40.883Z,14.10
2022-11-03T13:51:38.692Z,14.10
2022-11-03T14:07:20.560Z,14.00
2022-11-03T14:12:32.329Z,13.90
2022-11-03T14:15:00.347Z,13.90
2022-11-03T14:19:59.158Z,13.90
2022-11-03T14:27:27.815Z,13.80
2022-11-03T14:29:54.590Z,13.80
2022-11-03T14:39:43.108Z,13.70
2022-11-03T14:42:16.407Z,13.70
2022-11-03T14:44:44.851Z,13.70
2022-11-03T14:47:15.537Z,13.70
2022-11-03T14:52:09.893Z,13.70
2022-11-03T14:57:04.751Z,13.60
2022-11-03T14:59:31.885Z,13.70
2022-11-03T15:01:59.350Z,13.60
2022-11-03T15:04:26.328Z,13.60
2022-11-03T15:06:52.917Z,13.60
2022-11-03T15:11:46.825Z,13.40
2022-11-03T15:16:40.795Z,13.50
2022-11-03T15:19:08.078Z,13.50
2022-11-03T15:26:49.283Z,13.40
2022-11-03T15:41:36.418Z,13.40
2022-11-03T15:44:03.015Z,13.40
2022-11-03T15:46:29.595Z,13.40
2022-11-03T15:56:29.537Z,13.50
2022-11-03T16:01:23.612Z,13.40
2022-11-03T16:06:17.527Z,13.40
2022-11-03T16:28:23.144Z,13.30
2022-11-03T16:30:54.289Z,13.30
2022-11-03T16:33:21.430Z,13.30
2022-11-03T16:35:48.108Z,13.30
2022-11-03T16:38:15.406Z,13.30
2022-11-03T16:40:42.888Z,13.30
2022-11-03T16:43:09.663Z,13.30
2022-11-03T16:45:37.973Z,13.30
2022-11-03T16:48:05.981Z,13.20
2022-11-03T17:05:18.607Z,13.00
2022-11-03T17:07:50.225Z,13.10
2022-11-03T17:10:20.000Z,13.00
2022-11-03T17:22:35.495Z,13.10
2022-11-03T17:25:02.728Z,12.90
2022-11-03T17:27:44.714Z,13.10
2022-11-03T17:30:18.499Z,13.10
2022-11-03T17:35:22.169Z,13.00
2022-11-03T17:37:50.231Z,13.00
2022-11-03T17:40:19.421Z,13.10
2022-11-03T17:45:14.877Z,13.10
2022-11-03T17:47:41.936Z,13.10
2022-11-03T17:50:13.135Z,13.10
2022-11-03T17:55:16.881Z,13.10
2022-11-03T18:00:16.759Z,13.10
2022-11-03T18:02:44.015Z,13.10
2022-11-03T18:05:22.005Z,13.10
2022-11-03T18:07:49.826Z,13.10
2022-11-03T18:13:05.488Z,13.10
2022-11-03T18:15:33.595Z,13.10
2022-11-03T18:18:01.571Z,13.10
2022-11-03T18:20:29.970Z,13.10
2022-11-03T18:23:15.461Z,13.20
2022-11-03T18:25:42.087Z,13.20
2022-11-03T18:33:03.768Z,13.20
2022-11-03T18:35:33.343Z,13.20
2022-11-03T18:40:29.156Z,13.20
2022-11-03T18:42:56.322Z,13.20
2022-11-03T18:47:50.134Z,13.20
2022-11-03T18:50:18.179Z,13.20
2022-11-03T18:52:47.880Z,13.20
2022-11-03T18:55:16.289Z,13.10
2022-11-03T19:00:20.250Z,12.90
2022-11-03T19:02:47.445Z,12.80
2022-11-03T19:05:15.552Z,12.90
2022-11-03T19:07:45.239Z,12.90
2022-11-03T19:10:22.372Z,12.90
2022-11-03T19:15:20.210Z,12.80
2022-11-03T19:17:52.446Z,12.80
2022-11-03T19:20:19.226Z,12.80
2022-11-03T19:22:46.343Z,12.80
2022-11-03T19:25:14.587Z,12.60
2022-11-03T19:27:45.485Z,12.70
2022-11-03T19:30:18.134Z,12.70
2022-11-03T19:32:48.158Z,12.70
2022-11-03T19:40:16.795Z,12.60
2022-11-03T19:45:15.896Z,12.60
2022-11-03T19:50:43.409Z,12.50
2022-11-03T19:53:16.124Z,12.50
2022-11-03T19:58:18.849Z,12.50
2022-11-03T20:00:46.410Z,12.60
2022-11-03T20:05:45.115Z,11.90
2022-11-03T20:08:21.773Z,12.70
2022-11-03T20:13:18.023Z,12.60
2022-11-03T20:18:12.917Z,12.60
2022-11-03T20:20:41.079Z,12.60
2022-11-03T20:23:14.676Z,12.60
2022-11-03T20:25:42.606Z,12.60
2022-11-03T20:28:17.968Z,12.60
2022-11-03T20:33:15.552Z,12.70
2022-11-03T20:35:43.593Z,12.60
2022-11-03T20:38:12.716Z,12.60
2022-11-03T20:40:40.493Z,12.60
2022-11-03T20:43:10.965Z,12.40
2022-11-03T20:48:10.288Z,12.50
2022-11-03T20:50:37.828Z,12.50
2022-11-03T20:53:11.755Z,12.50
2022-11-03T20:58:09.198Z,12.40
2022-11-03T21:12:52.827Z,12.40
2022-11-03T21:16:03.722Z,12.30
2022-11-03T21:18:48.368Z,12.40
2022-11-03T21:31:12.982Z,12.30
2022-11-03T21:36:08.165Z,12.20
2022-11-03T21:44:06.470Z,12.10
2022-11-03T21:56:40.151Z,12.10
2022-11-03T22:11:22.640Z,12.10
2022-11-03T22:13:56.814Z,12.20
2022-11-03T22:16:42.587Z,12.20
2022-11-03T22:19:36.253Z,12.20
2022-11-03T22:22:28.302Z,12.20
2022-11-03T22:25:13.701Z,12.20
2022-11-03T22:30:26.357Z,12.10
2022-11-03T22:32:54.631Z,12.20
2022-11-03T22:35:41.601Z,12.20
2022-11-03T22:38:10.817Z,12.20
2022-11-03T22:41:10.763Z,12.20
2022-11-03T22:46:23.333Z,12.20
2022-11-03T22:56:30.339Z,12.30
2022-11-03T22:58:57.956Z,12.30
2022-11-03T23:01:29.198Z,12.30
2022-11-03T23:06:28.032Z,12.40
2022-11-03T23:08:55.808Z,12.30
2022-11-03T23:11:33.220Z,12.20
2022-11-03T23:14:02.950Z,12.20
2022-11-03T23:16:32.275Z,12.20
2022-11-03T23:19:18.540Z,12.20
2022-11-03T23:21:46.965Z,12.10
2022-11-03T23:29:27.356Z,12.00
2022-11-03T23:39:17.645Z,12.00
2022-11-03T23:44:12.728Z,12.00
2022-11-03T23:49:25.178Z,12.00
2022-11-03T23:51:52.059Z,13.40
2022-11-03T23:57:05.696Z,12.00
2022-11-03T23:59:34.036Z,11.80
